Time;durP1;ratioP1;P1;durP2;ratioP2;P2;SDS_P1;SDS_P2;PMS_P1;PMS_P2;Temp;Humidity;BMP_temperature;BMP_pressure;BME280_temperature;BME280_humidity;BME280_pressure;Samples;Min_cycle;Max_cycle;Signal;HPM_P1;HPM_P2
2022/07/19 00:02:01;;;;;;;3.33;3.03;;;;;;;15.74;100.00;97592.34;5006090;28;20204;-56
2022/07/19 00:04:29;;;;;;;3.83;3.10;;;;;;;15.66;100.00;97589.88;4993569;28;20763;-55
2022/07/19 00:06:58;;;;;;;3.33;3.03;;;;;;;15.57;100.00;97592.75;5009937;28;20322;-56
2022/07/19 00:09:27;;;;;;;4.10;2.90;;;;;;;15.56;100.00;97590.31;5005445;28;20555;-56
2022/07/19 00:11:56;;;;;;;3.37;3.13;;;;;;;15.51;100.00;97588.25;5006521;28;20211;-56
2022/07/19 00:14:25;;;;;;;3.43;3.23;;;;;;;15.43;100.00;97589.25;4960617;28;20430;-56
2022/07/19 00:16:54;;;;;;;3.67;3.37;;;;;;;15.46;100.00;97582.69;5003462;28;20237;-54
2022/07/19 00:19:23;;;;;;;3.27;2.97;;;;;;;15.41;100.00;97579.84;4992999;28;20229;-58
2022/07/19 00:21:51;;;;;;;3.53;3.27;;;;;;;15.35;100.00;97581.47;5008279;28;20204;-54
2022/07/19 00:24:19;;;;;;;3.40;3.10;;;;;;;15.30;100.00;97571.38;5004385;28;20263;-56
2022/07/19 00:26:48;;;;;;;4.03;3.43;;;;;;;15.28;100.00;97577.97;5004036;28;20275;-57
2022/07/19 00:29:16;;;;;;;3.07;2.87;;;;;;;15.24;100.00;97574.88;4968010;28;20215;-57
2022/07/19 00:31:44;;;;;;;3.37;3.17;;;;;;;15.21;100.00;97574.47;5005350;28;20215;-58
2022/07/19 00:34:15;;;;;;;4.60;3.67;;;;;;;15.13;100.00;97575.50;4978142;28;20204;-58
2022/07/19 00:36:43;;;;;;;3.63;3.43;;;;;;;15.07;100.00;97571.78;5004634;28;20312;-53
2022/07/19 00:39:12;;;;;;;3.67;3.40;;;;;;;15.03;100.00;97581.22;5005236;28;20712;-56
2022/07/19 00:41:41;;;;;;;3.80;3.30;;;;;;;14.99;100.00;97574.66;5009497;28;20807;-54
2022/07/19 00:44:11;;;;;;;3.30;3.07;;;;;;;14.93;100.00;97570.94;4967747;28;20209;-58
2022/07/19 00:46:39;;;;;;;4.40;3.53;;;;;;;14.90;100.00;97572.19;4997153;28;20225;-56
2022/07/19 00:49:08;;;;;;;3.67;3.37;;;;;;;14.90;100.00;97572.19;5003538;28;20286;-56
2022/07/19 00:51:40;;;;;;;3.37;3.07;;;;;;;14.82;100.00;97575.03;4980553;28;20209;-56
2022/07/19 00:54:09;;;;;;;4.00;3.70;;;;;;;14.79;100.00;97575.44;5001915;28;20207;-57
2022/07/19 00:56:38;;;;;;;3.57;3.27;;;;;;;14.73;100.00;97576.22;5000197;28;20227;-59
2022/07/19 00:59:07;;;;;;;3.30;3.10;;;;;;;14.69;100.00;97586.47;5003977;28;20224;-53
2022/07/19 01:01:35;;;;;;;4.47;3.10;;;;;;;14.66;100.00;97570.84;4959433;28;20220;-58
2022/07/19 01:04:05;;;;;;;5.77;3.47;;;;;;;14.60;100.00;97577.00;4948738;28;20570;-58
2022/07/19 01:06:33;;;;;;;4.33;3.30;;;;;;;14.56;100.00;97576.56;5003912;28;20255;-52
2022/07/19 01:09:04;;;;;;;3.57;3.37;;;;;;;14.58;100.00;97571.00;4989958;28;20203;-58
2022/07/19 01:11:32;;;;;;;3.90;3.60;;;;;;;14.59;100.00;97575.34;5005446;28;20327;-53
2022/07/19 01:14:01;;;;;;;3.47;3.27;;;;;;;14.58;100.00;97576.34;5002042;28;20263;-57
2022/07/19 01:16:30;;;;;;;3.50;3.23;;;;;;;14.56;100.00;97579.22;5005697;28;20514;-57
2022/07/19 01:18:58;;;;;;;3.83;3.53;;;;;;;14.47;100.00;97575.09;4965461;28;20228;-57
2022/07/19 01:21:28;;;;;;;4.83;3.20;;;;;;;14.42;100.00;97581.03;5001103;28;20213;-52
2022/07/19 01:23:56;;;;;;;3.70;3.20;;;;;;;14.41;100.00;97573.25;5003809;28;20208;-57
2022/07/19 01:26:25;;;;;;;3.30;3.10;;;;;;;14.40;100.00;97579.59;4982099;28;20298;-54
2022/07/19 01:28:53;;;;;;;3.77;3.40;;;;;;;14.39;100.00;97583.25;5004325;28;20196;-56
2022/07/19 01:31:21;;;;;;;3.93;3.33;;;;;;;14.37;100.00;97580.78;4999909;28;20262;-56
2022/07/19 01:33:50;;;;;;;4.47;3.43;;;;;;;14.37;100.00;97588.78;4967326;28;20223;-57
2022/07/19 01:36:18;;;;;;;4.23;3.93;;;;;;;14.35;100.00;97587.34;4996974;28;20243;-53
2022/07/19 01:38:48;;;;;;;3.63;3.43;;;;;;;14.35;100.00;97582.84;5000113;28;20526;-56
2022/07/19 01:41:16;;;;;;;3.73;3.43;;;;;;;14.32;100.00;97580.56;4980700;28;20290;-54
2022/07/19 01:43:44;;;;;;;3.43;3.17;;;;;;;14.27;100.00;97580.34;5005496;28;20225;-55
2022/07/19 01:46:13;;;;;;;3.27;2.97;;;;;;;14.21;100.00;97575.81;4997394;28;20237;-55
2022/07/19 01:48:41;;;;;;;4.40;4.10;;;;;;;14.16;100.00;97576.41;5003122;28;20566;-57
2022/07/19 01:51:10;;;;;;;3.20;3.00;;;;;;;14.12;100.00;97580.47;4961654;28;20239;-57
2022/07/19 01:53:38;;;;;;;6.13;3.57;;;;;;;14.15;100.00;97580.88;5007328;28;20243;-57
2022/07/19 01:56:08;;;;;;;4.03;3.73;;;;;;;14.18;100.00;97585.81;4974724;28;20275;-58
2022/07/19 01:58:36;;;;;;;3.40;3.20;;;;;;;14.21;100.00;97587.28;5011110;28;20199;-57
2022/07/19 02:01:05;;;;;;;3.53;3.33;;;;;;;14.21;100.00;97586.47;5008801;28;20212;-58
2022/07/19 02:03:33;;;;;;;3.70;3.50;;;;;;;14.20;100.00;97582.97;5005198;28;20751;-57
2022/07/19 02:06:02;;;;;;;3.47;3.17;;;;;;;14.25;100.00;97585.06;4960909;28;20303;-58
2022/07/19 02:08:32;;;;;;;4.10;3.90;;;;;;;14.30;100.00;97582.63;5006794;28;20263;-57
2022/07/19 02:11:34;;;;;;;4.00;3.53;;;;;;;14.31;100.00;97585.06;4993361;28;20682;-57
2022/07/19 02:13:50;;;;;;;4.23;3.40;;;;;;;14.32;100.00;97580.56;5005348;28;20201;-55
2022/07/19 02:16:18;;;;;;;3.57;3.37;;;;;;;14.25;100.00;97587.72;5002074;28;20228;-57
2022/07/19 02:18:47;;;;;;;4.10;3.70;;;;;;;14.17;100.00;97578.84;5005925;28;20208;-58
2022/07/19 02:21:15;;;;;;;3.83;3.53;;;;;;;14.08;100.00;97582.69;4962083;28;20228;-57
2022/07/19 02:23:44;;;;;;;3.43;3.23;;;;;;;14.02;100.00;97586.16;5003877;28;20212;-57
2022/07/19 02:26:12;;;;;;;3.70;3.40;;;;;;;13.94;100.00;97588.97;4981238;28;20228;-56
2022/07/19 02:28:40;;;;;;;3.57;3.27;;;;;;;13.86;100.00;97590.78;5002768;28;20227;-57
2022/07/19 02:31:10;;;;;;;3.30;3.00;;;;;;;13.77;100.00;97585.78;5001887;28;20701;-53
2022/07/19 02:33:39;;;;;;;3.60;3.40;;;;;;;13.69;100.00;97579.59;5005837;28;20275;-56
2022/07/19 02:36:07;;;;;;;4.57;3.37;;;;;;;13.66;100.00;97573.84;4967737;28;20278;-57
2022/07/19 02:38:35;;;;;;;3.30;3.10;;;;;;;13.63;100.00;97590.19;5004540;28;20732;-57
2022/07/19 02:41:04;;;;;;;3.90;3.70;;;;;;;13.60;100.00;97588.72;5005525;28;20290;-55
2022/07/19 02:43:32;;;;;;;4.17;3.77;;;;;;;13.63;100.00;97591.00;4983769;28;20207;-56
2022/07/19 02:46:00;;;;;;;4.90;3.60;;;;;;;13.60;100.00;97592.22;5003481;28;20661;-55
2022/07/19 02:48:29;;;;;;;4.50;3.70;;;;;;;13.59;100.00;97581.75;5006788;28;20212;-57
2022/07/19 02:50:58;;;;;;;4.73;4.43;;;;;;;13.60;100.00;97588.72;4990678;28;20839;-54
2022/07/19 02:53:26;;;;;;;4.43;3.70;;;;;;;13.54;100.00;97587.69;4981937;28;20705;-54
2022/07/19 02:55:55;;;;;;;4.47;3.90;;;;;;;13.47;100.00;97592.16;5007486;28;20216;-54
2022/07/19 02:58:23;;;;;;;4.47;4.07;;;;;;;13.43;100.00;97582.88;5002069;28;20456;-54
2022/07/19 03:00:51;;;;;;;3.80;3.60;;;;;;;13.39;100.00;97582.41;5004493;28;20290;-53
2022/07/19 03:06:06;;;;;;;4.07;3.87;;;;;;;13.36;100.00;97576.63;4964907;28;20242;-58
2022/07/19 03:08:35;;;;;;;7.30;3.80;;;;;;;13.46;100.00;97585.16;5003706;28;20585;-52
2022/07/19 03:11:03;;;;;;;4.10;3.80;;;;;;;13.52;100.00;97595.03;4956034;28;20220;-57
2022/07/19 03:13:31;;;;;;;5.03;4.63;;;;;;;13.57;100.00;97595.28;5000986;28;20200;-55
2022/07/19 03:15:59;;;;;;;4.20;4.00;;;;;;;13.61;100.00;97601.03;4980076;28;20633;-57
2022/07/19 03:18:28;;;;;;;4.40;4.10;;;;;;;13.57;100.00;97594.44;4999570;28;20220;-55
2022/07/19 03:20:57;;;;;;;4.30;4.00;;;;;;;13.54;100.00;97590.34;4981533;28;20239;-56
2022/07/19 03:23:28;;;;;;;4.33;4.10;;;;;;;13.51;100.00;97589.91;5002327;28;20220;-55
2022/07/19 03:25:57;;;;;;;4.57;4.33;;;;;;;13.46;100.00;97587.84;4958533;28;20211;-57
2022/07/19 03:28:25;;;;;;;5.40;4.83;;;;;;;13.46;100.00;97587.84;5004094;28;20555;-54
2022/07/19 03:30:53;;;;;;;4.53;4.13;;;;;;;13.41;100.00;97587.53;5004407;28;20682;-57
2022/07/19 03:33:22;;;;;;;4.47;4.13;;;;;;;13.37;100.00;97594.25;5004326;28;20838;-52
2022/07/19 03:35:50;;;;;;;4.47;4.17;;;;;;;13.34;100.00;97587.50;4981339;28;21380;-57
2022/07/19 03:38:18;;;;;;;5.30;4.13;;;;;;;13.33;100.00;97588.50;5004680;28;20201;-53
2022/07/19 03:40:48;;;;;;;4.70;4.30;;;;;;;13.34;100.00;97594.66;4959345;28;20256;-57
2022/07/19 03:43:17;;;;;;;5.13;4.63;;;;;;;13.34;100.00;97597.31;5003975;28;20208;-53
2022/07/19 03:45:46;;;;;;;5.07;4.47;;;;;;;13.34;100.00;97589.31;5003407;28;20236;-49
2022/07/19 03:48:14;;;;;;;5.67;4.67;;;;;;;13.35;100.00;97593.63;5004215;28;20212;-56
2022/07/19 03:50:42;;;;;;;5.40;4.53;;;;;;;13.35;100.00;97593.63;5002345;28;20791;-56
2022/07/19 03:53:10;;;;;;;5.50;5.10;;;;;;;13.34;100.00;97594.66;4983416;28;20645;-57
2022/07/19 03:55:39;;;;;;;4.67;4.47;;;;;;;13.35;100.00;97590.97;4955274;28;20808;-54
2022/07/19 03:58:08;;;;;;;4.90;4.57;;;;;;;13.37;100.00;97597.75;5007753;28;20510;-57
2022/07/19 04:00:36;;;;;;;5.07;4.77;;;;;;;13.40;100.00;97594.72;5004489;28;20535;-53
2022/07/19 04:03:05;;;;;;;4.70;4.40;;;;;;;13.43;100.00;97591.69;5002973;28;20232;-57
2022/07/19 04:05:33;;;;;;;7.73;5.13;;;;;;;13.47;100.00;97605.44;4999128;28;20454;-56
2022/07/19 04:08:02;;;;;;;6.50;5.47;;;;;;;13.50;100.00;97599.75;4979083;28;20231;-56
2022/07/19 04:10:30;;;;;;;5.30;4.90;;;;;;;13.53;100.00;97599.34;4956564;28;20251;-56
2022/07/19 04:12:59;;;;;;;5.43;4.93;;;;;;;13.59;100.00;97606.56;5001676;28;20750;-57
2022/07/19 04:15:28;;;;;;;7.00;5.40;;;;;;;13.67;100.00;97610.94;4994335;28;20204;-57
2022/07/19 04:17:56;;;;;;;6.10;5.60;;;;;;;13.72;100.00;97619.16;5002934;28;20224;-56
2022/07/19 04:20:25;;;;;;;5.20;4.80;;;;;;;13.81;100.00;97619.00;5003601;28;20236;-55
2022/07/19 04:22:53;;;;;;;5.20;4.80;;;;;;;13.89;100.00;97627.69;4983115;28;20212;-55
2022/07/19 04:25:22;;;;;;;5.10;4.73;;;;;;;13.99;100.00;97621.19;5002621;28;20621;-54
2022/07/19 04:27:51;;;;;;;5.53;4.97;;;;;;;14.06;100.00;97619.38;4943068;28;20827;-52
2022/07/19 04:30:19;;;;;;;5.17;4.67;;;;;;;14.16;100.00;97616.38;5001721;28;20208;-55
2022/07/19 04:32:49;;;;;;;5.50;5.07;;;;;;;14.25;100.00;97612.50;4980950;28;20209;-58
2022/07/19 04:35:17;;;;;;;5.17;4.70;;;;;;;14.36;100.00;97620.97;5003060;28;20208;-51
2022/07/19 04:37:45;;;;;;;6.27;5.67;;;;;;;14.50;100.00;97619.19;4985118;28;20889;-56
2022/07/19 04:40:14;;;;;;;6.33;5.73;;;;;;;14.60;100.00;97636.47;5006044;28;20220;-56
2022/07/19 04:42:42;;;;;;;5.90;5.50;;;;;;;14.75;100.00;97627.50;4958556;28;20741;-60
2022/07/19 04:45:11;;;;;;;6.00;5.37;;;;;;;14.89;100.00;97625.72;5002609;28;22318;-59
2022/07/19 04:47:39;;;;;;;5.87;5.27;;;;;;;15.04;100.00;97633.56;5002295;28;20239;-54
2022/07/19 04:50:09;;;;;;;5.73;5.27;;;;;;;15.19;100.00;97633.38;5003414;28;20248;-58
2022/07/19 04:52:38;;;;;;;6.20;5.70;;;;;;;15.38;100.00;97629.09;4986711;28;20666;-56
2022/07/19 04:55:08;;;;;;;5.70;5.20;;;;;;;15.57;100.00;97621.31;5009296;28;20209;-58
2022/07/19 04:57:36;;;;;;;5.10;4.60;;;;;;;15.73;100.00;97628.09;5004712;28;20220;-58
2022/07/19 05:00:05;;;;;;;5.63;5.13;;;;;;;15.91;100.00;97622.97;4959594;28;20228;-54
2022/07/19 05:02:33;;;;;;;5.43;4.97;;;;;;;16.02;100.00;97626.03;4998492;28;20484;-56
2022/07/19 05:05:01;;;;;;;6.60;4.63;;;;;;;16.23;100.00;97624.16;5003135;28;20288;-57
2022/07/19 05:07:31;;;;;;;5.97;5.47;;;;;;;16.39;100.00;97626.34;5004042;28;20248;-57
2022/07/19 05:10:00;;;;;;;4.93;4.63;;;;;;;16.50;100.00;97627.56;4985626;28;20688;-56
2022/07/19 05:12:28;;;;;;;4.60;4.30;;;;;;;16.67;100.00;97617.22;5002582;28;20204;-57
2022/07/19 05:14:56;;;;;;;4.53;4.17;;;;;;;16.83;100.00;97610.53;4961143;28;20306;-55
2022/07/19 05:17:24;;;;;;;5.30;4.87;;;;;;;17.03;100.00;97618.50;5004122;28;20220;-59
2022/07/19 05:19:52;;;;;;;7.50;5.53;;;;;;;17.24;100.00;97613.84;4950346;28;20386;-55
2022/07/19 05:22:22;;;;;;;5.03;4.60;;;;;;;17.31;100.00;97611.09;5003855;28;20252;-57
2022/07/19 05:24:51;;;;;;;5.57;5.23;;;;;;;17.46;100.00;97611.63;4999167;28;20422;-56
2022/07/19 05:27:20;;;;;;;6.63;5.10;;;;;;;17.54;100.00;97610.53;5001426;28;20285;-57
2022/07/19 05:29:48;;;;;;;7.20;5.13;;;;;;;17.70;100.00;97608.34;5004844;28;20204;-58
2022/07/19 05:32:16;;;;;;;5.10;4.70;;;;;;;17.97;100.00;97608.09;5005869;28;20230;-59
2022/07/19 05:34:44;;;;;;;5.00;4.60;;;;;;;18.14;100.00;97613.72;4964938;28;20248;-56
2022/07/19 05:37:12;;;;;;;4.87;4.50;;;;;;;18.41;100.00;97606.22;4999557;28;20236;-55
2022/07/19 05:39:40;;;;;;;5.07;4.67;;;;;;;18.60;100.00;97606.19;4999787;28;20228;-56
2022/07/19 05:42:09;;;;;;;4.80;4.37;;;;;;;18.76;100.00;97594.03;5004043;28;20736;-55
2022/07/19 05:44:37;;;;;;;4.70;4.33;;;;;;;18.92;100.00;97595.25;5004894;28;20266;-54
2022/07/19 05:47:06;;;;;;;5.80;5.13;;;;;;;19.06;100.00;97588.66;5003983;28;20610;-57
2022/07/19 05:49:34;;;;;;;4.87;4.43;;;;;;;19.18;100.00;97593.28;4970314;28;20251;-56
2022/07/19 05:52:02;;;;;;;5.37;4.67;;;;;;;19.28;100.00;97585.47;5002732;28;20236;-58
2022/07/19 05:54:30;;;;;;;5.60;4.70;;;;;;;19.44;100.00;97585.84;4998957;28;20239;-54
2022/07/19 05:56:58;;;;;;;4.70;4.23;;;;;;;19.62;100.00;97590.28;5004495;28;20323;-52
2022/07/19 05:59:27;;;;;;;4.73;4.33;;;;;;;19.70;100.00;97592.66;5001830;28;20627;-55
2022/07/19 06:01:55;;;;;;;5.97;4.30;;;;;;;19.78;100.00;97599.53;5005049;28;20337;-55
2022/07/19 06:04:24;;;;;;;5.60;4.30;;;;;;;19.97;99.87;97605.66;4968656;28;20291;-59
2022/07/19 06:06:52;;;;;;;4.17;3.93;;;;;;;20.18;92.34;97609.59;4995284;28;20260;-58
2022/07/19 06:09:20;;;;;;;4.07;3.73;;;;;;;20.34;87.76;97604.56;5003349;28;20302;-58
2022/07/19 06:11:49;;;;;;;3.97;3.77;;;;;;;20.59;87.11;97609.66;5005414;28;20212;-58
2022/07/19 06:14:16;;;;;;;4.63;3.60;;;;;;;;;;5003953;28;20212;-57
2022/07/19 06:16:46;;;;;;;5.53;3.83;;;;;;;21.04;80.18;97615.38;5002302;28;20277;-59
2022/07/19 06:19:15;;;;;;;4.03;3.73;;;;;;;21.19;86.15;97606.75;4969517;28;20223;-57
2022/07/19 06:21:43;;;;;;;9.03;4.83;;;;;;;21.29;91.79;97606.13;4989834;28;20307;-58
2022/07/19 06:24:11;;;;;;;14.13;4.77;;;;;;;21.43;91.92;97612.81;5004771;28;20312;-59
2022/07/19 06:26:39;;;;;;;14.63;4.87;;;;;;;21.44;92.36;97608.25;5002791;28;20278;-57
2022/07/19 06:29:07;;;;;;;19.70;5.70;;;;;;;21.56;92.83;97600.91;5003727;28;20204;-58
2022/07/19 06:31:35;;;;;;;5.23;4.23;;;;;;;21.66;93.34;97597.59;5004554;28;20197;-58
2022/07/19 06:34:06;;;;;;;4.70;3.50;;;;;;;21.71;84.78;97602.22;5001648;28;20208;-57
2022/07/19 06:36:40;;;;;;;4.70;3.60;;;;;;;21.83;81.66;97597.59;4978506;28;20235;-55
2022/07/19 06:39:08;;;;;;;4.20;3.90;;;;;;;21.90;76.46;97605.47;5000136;28;20213;-59
2022/07/19 06:41:36;;;;;;;3.87;3.50;;;;;;;22.00;69.08;97605.66;5000106;28;20225;-55
2022/07/19 06:44:05;;;;;;;3.40;3.20;;;;;;;22.10;78.66;97605.78;5007564;28;20220;-55
2022/07/19 06:46:33;;;;;;;4.00;3.70;;;;;;;22.27;70.73;97603.06;5002897;28;20791;-59
2022/07/19 06:49:01;;;;;;;5.63;3.43;;;;;;;22.36;70.72;97592.66;5008746;28;20290;-58
2022/07/19 06:51:30;;;;;;;4.07;3.77;;;;;;;22.58;70.53;97599.13;4973244;28;20204;-58
2022/07/19 06:53:59;;;;;;;4.23;3.23;;;;;;;22.64;63.61;97592.72;5005666;28;20825;-58
2022/07/19 06:56:27;;;;;;;5.53;3.40;;;;;;;22.80;63.29;97593.72;5003083;28;20227;-55
2022/07/19 06:58:55;;;;;;;4.03;3.60;;;;;;;22.92;61.37;97593.56;5009970;28;21045;-58
2022/07/19 07:01:24;;;;;;;4.80;3.60;;;;;;;22.95;60.41;97595.78;5007227;28;20729;-58
2022/07/19 07:03:52;;;;;;;6.43;3.37;;;;;;;23.17;57.95;97589.47;5008019;28;20296;-58
2022/07/19 07:06:20;;;;;;;3.77;3.43;;;;;;;23.38;61.04;97591.34;4976568;28;20232;-59
2022/07/19 07:08:50;;;;;;;4.53;3.67;;;;;;;23.33;58.60;97585.06;5007233;28;20201;-57
2022/07/19 07:11:18;;;;;;;3.60;3.20;;;;;;;23.52;55.51;97583.63;5004948;28;20698;-57
2022/07/19 07:13:46;;;;;;;3.60;3.40;;;;;;;23.59;56.23;97591.47;5006007;28;21085;-57
2022/07/19 07:16:14;;;;;;;5.40;3.00;;;;;;;23.75;54.91;97588.91;5006027;28;20283;-57
2022/07/19 07:18:43;;;;;;;5.33;3.53;;;;;;;23.90;59.01;97586.28;5006972;28;20542;-56
2022/07/19 07:21:11;;;;;;;3.37;3.00;;;;;;;24.06;54.18;97586.44;5000802;28;20217;-57
2022/07/19 07:23:40;;;;;;;4.93;3.50;;;;;;;24.06;54.96;97591.84;4982705;28;20216;-58
2022/07/19 07:26:10;;;;;;;9.20;4.00;;;;;;;24.06;55.25;97579.13;4974008;28;20915;-57
2022/07/19 07:28:38;;;;;;;5.23;3.40;;;;;;;24.34;51.63;97578.97;5004801;28;20258;-60
2022/07/19 07:31:06;;;;;;;3.60;3.30;;;;;;;24.50;50.11;97579.84;5006512;28;20204;-58
2022/07/19 07:33:34;;;;;;;3.00;2.70;;;;;;;24.57;49.16;97585.84;5006379;28;20208;-58
2022/07/19 07:36:02;;;;;;;3.80;2.80;;;;;;;24.78;49.86;97581.31;5004628;28;20230;-59
2022/07/19 07:38:30;;;;;;;3.27;2.97;;;;;;;24.76;51.17;97571.84;5008753;28;20208;-58
2022/07/19 07:40:59;;;;;;;5.63;3.37;;;;;;;24.99;47.11;97571.34;4973914;28;20205;-58
2022/07/19 07:43:48;;;;;;;5.30;2.90;;;;;;;25.18;46.06;97570.00;5000629;28;20713;-59
2022/07/19 07:46:16;;;;;;;6.60;2.97;;;;;;;25.40;45.56;97572.47;5005310;28;20241;-56
2022/07/19 07:48:45;;;;;;;6.60;3.00;;;;;;;25.50;45.79;97574.38;5004360;28;20212;-57
2022/07/19 07:51:13;;;;;;;3.73;2.83;;;;;;;25.62;47.03;97561.38;5005935;28;20209;-57
2022/07/19 07:54:01;;;;;;;3.40;2.93;;;;;;;25.78;45.78;97567.59;5005400;28;20259;-57
2022/07/19 07:56:30;;;;;;;3.73;3.53;;;;;;;25.91;46.89;97558.06;4976851;28;20224;-58
2022/07/19 07:59:00;;;;;;;3.50;3.20;;;;;;;25.88;45.41;97563.22;5001470;28;20201;-57
2022/07/19 08:01:29;;;;;;;3.43;3.13;;;;;;;25.90;43.61;97571.91;5008579;28;20201;-56
2022/07/19 08:03:58;;;;;;;2.70;2.50;;;;;;;25.91;43.30;97566.19;5001336;28;21119;-56
2022/07/19 08:06:26;;;;;;;3.10;2.90;;;;;;;25.91;43.04;97559.97;5004677;28;20637;-57
2022/07/19 08:08:54;;;;;;;2.87;2.67;;;;;;;26.07;42.12;97564.25;5003237;28;20377;-58
2022/07/19 08:11:22;;;;;;;5.20;3.30;;;;;;;26.23;42.08;97556.09;4979337;28;20226;-58
2022/07/19 08:13:51;;;;;;;3.60;2.93;;;;;;;26.25;42.94;97556.63;4998830;28;20198;-56
2022/07/19 08:16:20;;;;;;;3.40;3.10;;;;;;;26.36;43.50;97550.06;5007188;28;20249;-58
2022/07/19 08:18:49;;;;;;;3.50;2.73;;;;;;;26.43;42.30;97553.28;5000152;28;20709;-52
2022/07/19 08:21:17;;;;;;;2.90;2.70;;;;;;;26.59;40.75;97545.09;5003750;28;20214;-59
2022/07/19 08:23:45;;;;;;;3.90;2.90;;;;;;;26.65;40.60;97543.97;5001601;28;20250;-56
2022/07/19 08:26:13;;;;;;;5.03;2.93;;;;;;;26.62;40.78;97547.25;5003482;28;20273;-60
2022/07/19 08:28:41;;;;;;;5.00;2.97;;;;;;;26.72;40.49;97546.38;4964124;28;20218;-57
2022/07/19 08:31:10;;;;;;;2.50;2.40;;;;;;;26.85;40.39;97540.34;5001272;28;20583;-56
2022/07/19 08:33:42;;;;;;;3.43;3.20;;;;;;;26.98;39.46;97532.63;5005558;28;20206;-58
2022/07/19 08:36:10;;;;;;;2.80;2.60;;;;;;;27.08;38.29;97532.53;5003214;28;21098;-57
2022/07/19 08:38:39;;;;;;;3.10;2.60;;;;;;;27.23;37.99;97531.63;5006769;28;20218;-56
2022/07/19 08:41:08;;;;;;;2.00;1.90;;;;;;;27.33;38.04;97528.00;5006269;28;20891;-58
2022/07/19 08:43:36;;;;;;;3.73;2.23;;;;;;;27.40;37.60;97520.31;4970600;28;20226;-58
2022/07/19 08:46:05;;;;;;;2.33;2.23;;;;;;;27.48;38.10;97526.28;5001895;28;20958;-56
2022/07/19 08:48:34;;;;;;;2.07;1.97;;;;;;;27.59;36.64;97525.88;5005945;28;20589;-59
2022/07/19 08:51:13;;;;;;;2.30;2.20;;;;;;;27.68;36.68;97512.47;5007283;28;20297;-57
2022/07/19 08:53:41;;;;;;;2.40;2.30;;;;;;;27.73;36.86;97517.06;5002562;28;20213;-56
2022/07/19 08:58:51;;;;;;;2.27;2.17;;;;;;;27.95;34.84;97513.00;4967407;28;20219;-56
2022/07/19 09:01:20;;;;;;;2.50;2.30;;;;;;;28.13;35.56;97514.16;5002902;28;20621;-55
2022/07/19 09:04:17;;;;;;;2.90;2.07;;;;;;;28.23;35.61;97511.38;5002810;28;20520;-56
2022/07/19 09:06:49;;;;;;;2.93;2.73;;;;;;;28.31;35.27;97512.59;5004243;28;20223;-58
2022/07/19 09:09:19;;;;;;;2.37;2.20;;;;;;;28.33;35.13;97512.31;5001859;28;20279;-57
2022/07/19 09:11:51;;;;;;;2.87;2.67;;;;;;;28.41;35.46;97517.94;5004197;28;20203;-56
2022/07/19 09:14:22;;;;;;;3.17;2.40;;;;;;;28.54;35.87;97515.59;4972622;28;20204;-57
2022/07/19 09:16:56;;;;;;;2.63;2.40;;;;;;;28.58;34.30;97509.22;4997977;28;20355;-58
2022/07/19 09:19:25;;;;;;;4.93;2.23;;;;;;;28.66;33.37;97506.97;5003614;28;20243;-55
2022/07/19 09:22:00;;;;;;;2.97;2.20;;;;;;;28.77;35.70;97511.16;5000459;28;21019;-59
2022/07/19 09:24:31;;;;;;;2.20;2.10;;;;;;;28.81;33.57;97508.69;5003243;28;20224;-58
2022/07/19 09:27:05;;;;;;;2.23;2.13;;;;;;;28.81;33.80;97492.34;5004506;28;20511;-59
2022/07/19 09:29:35;;;;;;;2.70;2.00;;;;;;;28.98;32.80;97500.78;4995804;28;20542;-57
2022/07/19 09:32:06;;;;;;;2.67;2.47;;;;;;;29.01;33.72;97502.13;4963696;28;20329;-57
2022/07/19 09:34:36;;;;;;;2.50;2.30;;;;;;;28.97;32.70;97495.63;4981180;28;20217;-55
2022/07/19 09:37:17;;;;;;;4.73;2.47;;;;;;;29.07;33.89;97491.91;4984162;28;20323;-56
2022/07/19 09:39:47;;;;;;;2.50;2.40;;;;;;;29.07;32.68;97487.28;4989915;28;20208;-54
2022/07/19 09:42:19;;;;;;;2.73;2.53;;;;;;;29.26;32.67;97489.97;4986222;28;20515;-59
2022/07/19 09:44:47;;;;;;;2.40;2.20;;;;;;;29.25;31.55;97493.81;5002850;28;20637;-56
2022/07/19 09:47:31;;;;;;;3.47;2.50;;;;;;;29.25;31.00;97504.72;4965023;28;21217;-57
2022/07/19 09:49:59;;;;;;;3.20;2.87;;;;;;;29.32;30.90;97493.41;5001965;28;20213;-54
2022/07/19 09:52:29;;;;;;;2.70;2.60;;;;;;;29.37;32.46;97493.34;5001514;28;20769;-57
2022/07/19 09:55:09;;;;;;;3.43;2.60;;;;;;;29.24;32.04;97496.81;4984924;28;20715;-55
2022/07/19 09:57:39;;;;;;;3.53;2.50;;;;;;;29.36;31.53;97493.63;5007002;28;20726;-58
2022/07/19 10:00:10;;;;;;;2.27;2.13;;;;;;;29.51;32.63;97503.50;4984787;28;20695;-59
2022/07/19 10:02:39;;;;;;;3.87;2.50;;;;;;;29.48;31.97;97493.19;5003788;28;20220;-57
2022/07/19 10:05:10;;;;;;;2.67;2.47;;;;;;;29.50;33.02;97490.97;4967516;28;20467;-56
2022/07/19 10:07:41;;;;;;;2.13;2.03;;;;;;;29.55;31.25;97482.66;5001239;28;20630;-58
2022/07/19 10:10:11;;;;;;;2.77;2.50;;;;;;;29.55;31.28;97482.66;4985200;28;20259;-57
2022/07/19 10:12:41;;;;;;;2.60;2.33;;;;;;;29.53;30.54;97484.91;5006292;28;20212;-55
2022/07/19 10:15:11;;;;;;;2.50;2.30;;;;;;;29.44;32.24;97482.03;4986244;28;20239;-58
2022/07/19 10:17:42;;;;;;;3.10;2.40;;;;;;;29.41;32.28;97483.47;5004122;28;20239;-57
2022/07/19 10:20:11;;;;;;;2.67;2.23;;;;;;;29.46;31.89;97486.09;4969992;28;20790;-58
2022/07/19 10:22:41;;;;;;;2.40;2.30;;;;;;;29.52;32.12;97472.34;5005586;28;20197;-58
2022/07/19 10:25:12;;;;;;;2.93;2.20;;;;;;;29.29;31.90;97469.44;4987815;28;20235;-58
2022/07/19 10:27:42;;;;;;;3.10;2.20;;;;;;;29.41;31.18;97474.47;5006855;28;20747;-59
2022/07/19 10:30:25;;;;;;;2.50;2.30;;;;;;;29.56;31.62;97466.00;4988171;28;20209;-58
2022/07/19 10:32:56;;;;;;;2.73;2.53;;;;;;;29.81;31.47;97465.81;5000728;28;20669;-56
2022/07/19 10:35:29;;;;;;;3.63;2.20;;;;;;;29.72;31.21;97466.50;4982341;28;20315;-57
2022/07/19 10:38:10;;;;;;;3.83;2.63;;;;;;;29.67;30.01;97461.13;5002905;28;20224;-57
2022/07/19 10:40:41;;;;;;;3.20;2.30;;;;;;;29.54;32.16;97459.22;4991961;28;20629;-56
2022/07/19 10:43:11;;;;;;;3.97;2.30;;;;;;;29.52;31.04;97448.59;5005562;28;20207;-57
2022/07/19 10:45:41;;;;;;;7.87;3.10;;;;;;;29.83;32.03;97449.94;4989505;28;20240;-57
2022/07/19 10:48:14;;;;;;;3.50;2.90;;;;;;;29.98;31.38;97457.81;5004825;28;20207;-57
2022/07/19 10:51:04;;;;;;;3.10;2.90;;;;;;;30.12;31.66;97455.09;4975040;28;20209;-57
2022/07/19 10:54:07;;;;;;;6.07;2.93;;;;;;;29.99;30.78;97448.50;5003455;28;20208;-57
2022/07/19 10:56:43;;;;;;;4.03;3.10;;;;;;;30.28;31.17;97450.09;4991402;28;20232;-58
2022/07/19 10:59:38;;;;;;;2.70;2.50;;;;;;;30.41;29.91;97442.16;5001433;28;20200;-57
2022/07/19 11:02:07;;;;;;;2.73;2.53;;;;;;;30.59;30.48;97438.47;4986503;28;20215;-58
2022/07/19 11:04:56;;;;;;;2.97;2.70;;;;;;;30.45;29.70;97443.16;4996248;28;20294;-57
2022/07/19 11:07:25;;;;;;;4.10;3.47;;;;;;;30.29;29.73;97439.97;4984441;28;20291;-55
2022/07/19 11:09:56;;;;;;;3.07;2.43;;;;;;;30.27;29.29;97432.09;5006990;28;20208;-56
2022/07/19 11:12:27;;;;;;;5.77;2.90;;;;;;;30.31;28.52;97437.75;4987570;28;20504;-57
2022/07/19 11:14:56;;;;;;;3.63;2.60;;;;;;;30.33;30.72;97425.38;5009186;28;20202;-56
2022/07/19 11:17:57;;;;;;;5.50;2.70;;;;;;;30.51;29.42;97419.25;5006197;28;20229;-59
2022/07/19 11:20:27;;;;;;;3.07;2.50;;;;;;;30.45;28.28;97419.38;4971601;28;21622;-57
2022/07/19 11:22:56;;;;;;;2.27;2.17;;;;;;;30.61;30.54;97414.41;5003242;28;20761;-56
2022/07/19 11:25:29;;;;;;;3.90;2.60;;;;;;;30.84;30.22;97414.38;5000320;28;20483;-58
2022/07/19 11:27:57;;;;;;;3.00;2.80;;;;;;;30.98;31.88;97410.78;4982264;28;20233;-56
2022/07/19 11:30:27;;;;;;;5.63;2.97;;;;;;;31.01;31.21;97408.22;5006655;28;20953;-58
2022/07/19 11:32:57;;;;;;;3.33;2.80;;;;;;;31.07;30.55;97406.16;4988375;28;20415;-56
2022/07/19 11:35:25;;;;;;;4.27;2.80;;;;;;;30.99;30.08;97409.66;4971454;28;20582;-58
2022/07/19 11:37:55;;;;;;;2.87;2.63;;;;;;;31.14;29.69;97414.72;5008438;28;20271;-57
2022/07/19 11:40:29;;;;;;;3.00;2.77;;;;;;;31.21;30.56;97413.50;4965429;28;20223;-57
2022/07/19 11:42:57;;;;;;;3.10;2.80;;;;;;;31.33;30.15;97397.31;5001880;28;20279;-57
2022/07/19 11:45:46;;;;;;;3.20;2.93;;;;;;;31.58;31.44;97393.06;5002422;28;20242;-58
2022/07/19 11:48:24;;;;;;;9.13;2.80;;;;;;;31.54;30.05;97394.81;5006182;28;20328;-57